sensor_id;sensor_type;location;lat;lon;timestamp;temperature;humidity
3198;DHT22;1611;49.394;11.136;2022-10-30T00:00:42;14.80;73.80
3198;DHT22;1611;49.394;11.136;2022-10-30T00:03:12;14.80;73.90
3198;DHT22;1611;49.394;11.136;2022-10-30T00:05:42;14.80;73.80
3198;DHT22;1611;49.394;11.136;2022-10-30T00:08:10;14.70;74.10
3198;DHT22;1611;49.394;11.136;2022-10-30T00:10:37;14.70;74.10
3198;DHT22;1611;49.394;11.136;2022-10-30T00:13:04;14.70;74.20
3198;DHT22;1611;49.394;11.136;2022-10-30T00:15:31;14.70;74.40
3198;DHT22;1611;49.394;11.136;2022-10-30T00:17:57;14.60;74.40
3198;DHT22;1611;49.394;11.136;2022-10-30T00:20:26;14.60;74.70
3198;DHT22;1611;49.394;11.136;2022-10-30T00:22:53;14.60;74.90
3198;DHT22;1611;49.394;11.136;2022-10-30T00:25:19;14.60;74.80
3198;DHT22;1611;49.394;11.136;2022-10-30T00:27:46;14.60;74.80
3198;DHT22;1611;49.394;11.136;2022-10-30T00:30:13;14.60;75.00
3198;DHT22;1611;49.394;11.136;2022-10-30T00:32:41;14.60;75.10
3198;DHT22;1611;49.394;11.136;2022-10-30T00:35:08;14.60;75.30
3198;DHT22;1611;49.394;11.136;2022-10-30T00:37:37;14.60;75.50
3198;DHT22;1611;49.394;11.136;2022-10-30T00:40:04;14.60;76.00
3198;DHT22;1611;49.394;11.136;2022-10-30T00:42:32;14.60;76.00
3198;DHT22;1611;49.394;11.136;2022-10-30T00:44:58;14.60;76.30
3198;DHT22;1611;49.394;11.136;2022-10-30T00:47:29;14.50;76.70
3198;DHT22;1611;49.394;11.136;2022-10-30T00:49:58;14.50;76.50
3198;DHT22;1611;49.394;11.136;2022-10-30T00:52:29;14.60;76.40
3198;DHT22;1611;49.394;11.136;2022-10-30T00:55:00;14.50;76.50
3198;DHT22;1611;49.394;11.136;2022-10-30T00:57:27;14.60;76.50
3198;DHT22;1611;49.394;11.136;2022-10-30T00:59:55;14.50;76.50
3198;DHT22;1611;49.394;11.136;2022-10-30T01:02:22;14.60;76.50
3198;DHT22;1611;49.394;11.136;2022-10-30T01:04:50;14.60;76.60
3198;DHT22;1611;49.394;11.136;2022-10-30T01:07:18;14.60;76.40
3198;DHT22;1611;49.394;11.136;2022-10-30T01:09:46;14.60;76.60
3198;DHT22;1611;49.394;11.136;2022-10-30T01:12:14;14.60;76.30
3198;DHT22;1611;49.394;11.136;2022-10-30T01:14:44;14.60;76.10
3198;DHT22;1611;49.394;11.136;2022-10-30T01:17:40;14.70;76.00
3198;DHT22;1611;49.394;11.136;2022-10-30T01:20:24;14.70;75.80
3198;DHT22;1611;49.394;11.136;2022-10-30T01:22:58;14.80;75.80
3198;DHT22;1611;49.394;11.136;2022-10-30T01:25:37;14.80;75.60
3198;DHT22;1611;49.394;11.136;2022-10-30T01:28:19;14.80;75.40
3198;DHT22;1611;49.394;11.136;2022-10-30T01:31:07;14.80;75.40
3198;DHT22;1611;49.394;11.136;2022-10-30T01:33:43;14.80;75.30
3198;DHT22;1611;49.394;11.136;2022-10-30T01:36:20;14.80;75.20
3198;DHT22;1611;49.394;11.136;2022-10-30T01:38:53;14.80;75.20
3198;DHT22;1611;49.394;11.136;2022-10-30T01:41:21;14.80;75.30
3198;DHT22;1611;49.394;11.136;2022-10-30T01:43:51;14.80;75.60
3198;DHT22;1611;49.394;11.136;2022-10-30T01:46:41;14.80;74.70
3198;DHT22;1611;49.394;11.136;2022-10-30T01:49:22;14.80;74.90
3198;DHT22;1611;49.394;11.136;2022-10-30T01:51:58;14.80;74.80
3198;DHT22;1611;49.394;11.136;2022-10-30T01:54:34;14.80;74.70
3198;DHT22;1611;49.394;11.136;2022-10-30T01:57:06;14.80;74.60
3198;DHT22;1611;49.394;11.136;2022-10-30T01:59:38;14.80;74.60
3198;DHT22;1611;49.394;11.136;2022-10-30T02:02:07;14.80;74.20
3198;DHT22;1611;49.394;11.136;2022-10-30T02:04:34;14.80;74.00
3198;DHT22;1611;49.394;11.136;2022-10-30T02:07:01;14.80;74.00
3198;DHT22;1611;49.394;11.136;2022-10-30T02:09:28;14.80;73.80
3198;DHT22;1611;49.394;11.136;2022-10-30T02:11:55;14.80;73.90
3198;DHT22;1611;49.394;11.136;2022-10-30T02:14:25;14.80;73.90
3198;DHT22;1611;49.394;11.136;2022-10-30T02:16:56;14.80;73.90
3198;DHT22;1611;49.394;11.136;2022-10-30T02:19:24;14.80;74.30
3198;DHT22;1611;49.394;11.136;2022-10-30T02:21:52;14.80;74.10
3198;DHT22;1611;49.394;11.136;2022-10-30T02:24:19;14.80;74.10
3198;DHT22;1611;49.394;11.136;2022-10-30T02:26:45;14.80;74.00
3198;DHT22;1611;49.394;11.136;2022-10-30T02:29:12;14.80;74.10
3198;DHT22;1611;49.394;11.136;2022-10-30T02:31:39;14.80;74.20
3198;DHT22;1611;49.394;11.136;2022-10-30T02:34:06;14.80;74.10
3198;DHT22;1611;49.394;11.136;2022-10-30T02:36:33;14.70;73.90
3198;DHT22;1611;49.394;11.136;2022-10-30T02:39:01;14.70;73.90
3198;DHT22;1611;49.394;11.136;2022-10-30T02:41:28;14.70;74.00
3198;DHT22;1611;49.394;11.136;2022-10-30T02:43:55;14.70;73.80
3198;DHT22;1611;49.394;11.136;2022-10-30T02:46:21;14.70;74.00
3198;DHT22;1611;49.394;11.136;2022-10-30T02:48:48;14.70;74.00
3198;DHT22;1611;49.394;11.136;2022-10-30T02:51:15;14.70;74.10
3198;DHT22;1611;49.394;11.136;2022-10-30T02:53:42;14.70;74.20
3198;DHT22;1611;49.394;11.136;2022-10-30T02:56:12;14.70;74.00
3198;DHT22;1611;49.394;11.136;2022-10-30T02:58:39;14.70;73.90
3198;DHT22;1611;49.394;11.136;2022-10-30T03:01:07;14.70;73.80
3198;DHT22;1611;49.394;11.136;2022-10-30T03:03:34;14.60;73.70
3198;DHT22;1611;49.394;11.136;2022-10-30T03:06:01;14.60;73.90
3198;DHT22;1611;49.394;11.136;2022-10-30T03:08:28;14.60;73.90
3198;DHT22;1611;49.394;11.136;2022-10-30T03:11:00;14.60;74.00
3198;DHT22;1611;49.394;11.136;2022-10-30T03:13:30;14.60;74.00
3198;DHT22;1611;49.394;11.136;2022-10-30T03:16:00;14.60;74.10
3198;DHT22;1611;49.394;11.136;2022-10-30T03:18:27;14.50;74.10
3198;DHT22;1611;49.394;11.136;2022-10-30T03:20:58;14.50;74.20
3198;DHT22;1611;49.394;11.136;2022-10-30T03:23:26;14.50;74.10
3198;DHT22;1611;49.394;11.136;2022-10-30T03:25:53;14.40;74.00
3198;DHT22;1611;49.394;11.136;2022-10-30T03:28:21;14.40;75.00
3198;DHT22;1611;49.394;11.136;2022-10-30T03:30:50;14.40;74.40
3198;DHT22;1611;49.394;11.136;2022-10-30T03:33:17;14.40;74.40
3198;DHT22;1611;49.394;11.136;2022-10-30T03:35:44;14.30;74.40
3198;DHT22;1611;49.394;11.136;2022-10-30T03:38:11;14.30;74.60
3198;DHT22;1611;49.394;11.136;2022-10-30T03:40:38;14.20;74.50
3198;DHT22;1611;49.394;11.136;2022-10-30T03:43:05;14.20;74.50
3198;DHT22;1611;49.394;11.136;2022-10-30T03:45:32;14.20;74.70
3198;DHT22;1611;49.394;11.136;2022-10-30T03:48:01;14.20;75.00
3198;DHT22;1611;49.394;11.136;2022-10-30T03:50:28;14.20;75.00
3198;DHT22;1611;49.394;11.136;2022-10-30T03:52:55;14.20;74.70
3198;DHT22;1611;49.394;11.136;2022-10-30T03:55:24;14.10;74.80
3198;DHT22;1611;49.394;11.136;2022-10-30T03:57:50;14.10;74.80
3198;DHT22;1611;49.394;11.136;2022-10-30T04:00:18;14.10;75.00
3198;DHT22;1611;49.394;11.136;2022-10-30T04:02:45;14.10;75.00
3198;DHT22;1611;49.394;11.136;2022-10-30T04:05:14;14.10;74.90
3198;DHT22;1611;49.394;11.136;2022-10-30T04:07:41;14.10;74.80
3198;DHT22;1611;49.394;11.136;2022-10-30T04:10:09;14.00;74.80
3198;DHT22;1611;49.394;11.136;2022-10-30T04:12:36;14.00;74.60
3198;DHT22;1611;49.394;11.136;2022-10-30T04:15:04;14.00;74.70
3198;DHT22;1611;49.394;11.136;2022-10-30T04:17:31;14.00;74.60
3198;DHT22;1611;49.394;11.136;2022-10-30T04:19:58;14.00;74.70
3198;DHT22;1611;49.394;11.136;2022-10-30T04:22:26;14.00;74.70
3198;DHT22;1611;49.394;11.136;2022-10-30T04:24:53;14.00;74.70
3198;DHT22;1611;49.394;11.136;2022-10-30T04:27:20;14.00;74.80
3198;DHT22;1611;49.394;11.136;2022-10-30T04:29:46;13.90;74.70
3198;DHT22;1611;49.394;11.136;2022-10-30T04:32:13;13.90;74.60
3198;DHT22;1611;49.394;11.136;2022-10-30T04:34:40;13.90;74.50
3198;DHT22;1611;49.394;11.136;2022-10-30T04:37:07;13.80;74.50
3198;DHT22;1611;49.394;11.136;2022-10-30T04:39:35;13.80;74.50
3198;DHT22;1611;49.394;11.136;2022-10-30T04:42:02;13.80;74.40
3198;DHT22;1611;49.394;11.136;2022-10-30T04:44:29;13.70;74.30
3198;DHT22;1611;49.394;11.136;2022-10-30T04:46:55;13.70;74.60
3198;DHT22;1611;49.394;11.136;2022-10-30T04:49:22;13.60;74.60
3198;DHT22;1611;49.394;11.136;2022-10-30T04:51:49;13.60;74.50
3198;DHT22;1611;49.394;11.136;2022-10-30T04:54:16;13.60;75.00
3198;DHT22;1611;49.394;11.136;2022-10-30T04:56:44;13.60;74.70
3198;DHT22;1611;49.394;11.136;2022-10-30T04:59:10;13.50;75.10
3198;DHT22;1611;49.394;11.136;2022-10-30T05:01:37;13.40;75.90
3198;DHT22;1611;49.394;11.136;2022-10-30T05:04:04;13.40;75.50
3198;DHT22;1611;49.394;11.136;2022-10-30T05:06:31;13.40;76.00
3198;DHT22;1611;49.394;11.136;2022-10-30T05:08:58;13.40;76.10
3198;DHT22;1611;49.394;11.136;2022-10-30T05:11:25;13.40;76.00
3198;DHT22;1611;49.394;11.136;2022-10-30T05:13:53;13.40;76.00
3198;DHT22;1611;49.394;11.136;2022-10-30T05:16:20;13.40;75.80
3198;DHT22;1611;49.394;11.136;2022-10-30T05:18:47;13.40;75.70
3198;DHT22;1611;49.394;11.136;2022-10-30T05:21:13;13.30;76.10
3198;DHT22;1611;49.394;11.136;2022-10-30T05:23:40;13.30;76.30
3198;DHT22;1611;49.394;11.136;2022-10-30T05:26:07;13.30;76.80
3198;DHT22;1611;49.394;11.136;2022-10-30T05:28:34;13.20;76.40
3198;DHT22;1611;49.394;11.136;2022-10-30T05:31:02;13.20;76.50
3198;DHT22;1611;49.394;11.136;2022-10-30T05:33:28;13.20;76.20
3198;DHT22;1611;49.394;11.136;2022-10-30T05:35:55;13.20;76.40
3198;DHT22;1611;49.394;11.136;2022-10-30T05:38:23;13.10;76.50
3198;DHT22;1611;49.394;11.136;2022-10-30T05:40:50;13.10;76.60
3198;DHT22;1611;49.394;11.136;2022-10-30T05:43:16;13.10;76.60
3198;DHT22;1611;49.394;11.136;2022-10-30T05:45:43;13.10;76.50
3198;DHT22;1611;49.394;11.136;2022-10-30T05:48:11;13.10;76.70
3198;DHT22;1611;49.394;11.136;2022-10-30T05:50:38;13.10;76.90
3198;DHT22;1611;49.394;11.136;2022-10-30T05:53:05;13.10;77.20
3198;DHT22;1611;49.394;11.136;2022-10-30T05:55:32;13.10;77.20
3198;DHT22;1611;49.394;11.136;2022-10-30T05:58:00;13.00;77.20
3198;DHT22;1611;49.394;11.136;2022-10-30T06:00:29;13.00;77.30
3198;DHT22;1611;49.394;11.136;2022-10-30T06:02:59;13.00;76.90
3198;DHT22;1611;49.394;11.136;2022-10-30T06:05:29;13.00;75.90
3198;DHT22;1611;49.394;11.136;2022-10-30T06:07:56;12.90;75.70
3198;DHT22;1611;49.394;11.136;2022-10-30T06:10:23;12.90;75.30
3198;DHT22;1611;49.394;11.136;2022-10-30T06:12:53;12.80;75.40
3198;DHT22;1611;49.394;11.136;2022-10-30T06:15:20;12.80;75.10
3198;DHT22;1611;49.394;11.136;2022-10-30T06:17:47;12.80;75.20
3198;DHT22;1611;49.394;11.136;2022-10-30T06:20:15;12.80;75.00
3198;DHT22;1611;49.394;11.136;2022-10-30T06:22:52;12.70;74.80
3198;DHT22;1611;49.394;11.136;2022-10-30T06:25:19;12.80;74.60
3198;DHT22;1611;49.394;11.136;2022-10-30T06:27:46;12.70;74.60
3198;DHT22;1611;49.394;11.136;2022-10-30T06:30:13;12.60;74.70
3198;DHT22;1611;49.394;11.136;2022-10-30T06:32:40;12.60;74.80
3198;DHT22;1611;49.394;11.136;2022-10-30T06:35:07;12.60;74.60
3198;DHT22;1611;49.394;11.136;2022-10-30T06:37:34;12.60;74.30
3198;DHT22;1611;49.394;11.136;2022-10-30T06:40:06;12.60;74.20
3198;DHT22;1611;49.394;11.136;2022-10-30T06:42:41;12.60;74.00
3198;DHT22;1611;49.394;11.136;2022-10-30T06:45:08;12.60;74.10
3198;DHT22;1611;49.394;11.136;2022-10-30T06:47:35;12.60;73.90
3198;DHT22;1611;49.394;11.136;2022-10-30T06:50:02;12.60;74.10
3198;DHT22;1611;49.394;11.136;2022-10-30T06:52:29;12.60;73.80
3198;DHT22;1611;49.394;11.136;2022-10-30T06:54:56;12.70;74.00
3198;DHT22;1611;49.394;11.136;2022-10-30T06:57:25;12.70;74.00
3198;DHT22;1611;49.394;11.136;2022-10-30T06:59:52;12.80;73.80
3198;DHT22;1611;49.394;11.136;2022-10-30T07:02:19;12.80;73.80
3198;DHT22;1611;49.394;11.136;2022-10-30T07:04:46;12.80;74.00
3198;DHT22;1611;49.394;11.136;2022-10-30T07:07:13;12.90;74.20
3198;DHT22;1611;49.394;11.136;2022-10-30T07:09:40;12.90;74.30
3198;DHT22;1611;49.394;11.136;2022-10-30T07:12:08;13.10;74.60
3198;DHT22;1611;49.394;11.136;2022-10-30T07:14:36;13.10;74.50
3198;DHT22;1611;49.394;11.136;2022-10-30T07:17:03;13.20;74.20
3198;DHT22;1611;49.394;11.136;2022-10-30T07:19:30;13.30;73.90
3198;DHT22;1611;49.394;11.136;2022-10-30T07:21:57;13.40;74.00
3198;DHT22;1611;49.394;11.136;2022-10-30T07:24:24;13.40;73.60
3198;DHT22;1611;49.394;11.136;2022-10-30T07:26:50;13.50;73.60
3198;DHT22;1611;49.394;11.136;2022-10-30T07:29:17;13.50;73.60
3198;DHT22;1611;49.394;11.136;2022-10-30T07:31:46;13.60;73.50
3198;DHT22;1611;49.394;11.136;2022-10-30T07:34:14;13.60;73.40
3198;DHT22;1611;49.394;11.136;2022-10-30T07:36:41;13.70;73.70
3198;DHT22;1611;49.394;11.136;2022-10-30T07:39:07;13.70;73.30
3198;DHT22;1611;49.394;11.136;2022-10-30T07:41:34;13.80;74.20
3198;DHT22;1611;49.394;11.136;2022-10-30T07:44:01;13.80;74.60
3198;DHT22;1611;49.394;11.136;2022-10-30T07:46:28;13.90;74.50
3198;DHT22;1611;49.394;11.136;2022-10-30T07:48:56;14.00;74.00
3198;DHT22;1611;49.394;11.136;2022-10-30T07:51:23;14.10;74.30
3198;DHT22;1611;49.394;11.136;2022-10-30T07:53:50;14.20;74.70
3198;DHT22;1611;49.394;11.136;2022-10-30T07:56:17;14.30;73.30
3198;DHT22;1611;49.394;11.136;2022-10-30T07:58:44;14.40;72.50
3198;DHT22;1611;49.394;11.136;2022-10-30T08:01:10;14.40;72.20
3198;DHT22;1611;49.394;11.136;2022-10-30T08:03:37;14.50;71.70
3198;DHT22;1611;49.394;11.136;2022-10-30T08:06:06;14.50;71.50
3198;DHT22;1611;49.394;11.136;2022-10-30T08:08:32;14.50;71.70
3198;DHT22;1611;49.394;11.136;2022-10-30T08:10:59;14.50;71.60
3198;DHT22;1611;49.394;11.136;2022-10-30T08:13:26;14.50;71.80
3198;DHT22;1611;49.394;11.136;2022-10-30T08:15:53;14.50;71.80
3198;DHT22;1611;49.394;11.136;2022-10-30T08:18:19;14.50;71.90
3198;DHT22;1611;49.394;11.136;2022-10-30T08:23:17;14.60;71.80
3198;DHT22;1611;49.394;11.136;2022-10-30T08:25:46;14.70;71.50
3198;DHT22;1611;49.394;11.136;2022-10-30T08:28:13;14.60;71.60
3198;DHT22;1611;49.394;11.136;2022-10-30T08:30:40;14.60;71.60
3198;DHT22;1611;49.394;11.136;2022-10-30T08:33:10;14.70;71.60
3198;DHT22;1611;49.394;11.136;2022-10-30T08:35:38;14.70;71.80
3198;DHT22;1611;49.394;11.136;2022-10-30T08:38:05;14.80;71.50
3198;DHT22;1611;49.394;11.136;2022-10-30T08:40:33;14.90;71.30
3198;DHT22;1611;49.394;11.136;2022-10-30T08:43:00;14.90;71.30
3198;DHT22;1611;49.394;11.136;2022-10-30T08:45:26;14.90;71.70
3198;DHT22;1611;49.394;11.136;2022-10-30T08:47:57;15.00;71.50
3198;DHT22;1611;49.394;11.136;2022-10-30T08:50:24;15.20;71.30
3198;DHT22;1611;49.394;11.136;2022-10-30T08:52:50;15.30;70.30
3198;DHT22;1611;49.394;11.136;2022-10-30T08:55:17;15.40;70.00
3198;DHT22;1611;49.394;11.136;2022-10-30T08:57:45;15.60;68.90
3198;DHT22;1611;49.394;11.136;2022-10-30T09:00:12;15.70;69.30
3198;DHT22;1611;49.394;11.136;2022-10-30T09:02:39;15.80;68.60
3198;DHT22;1611;49.394;11.136;2022-10-30T09:05:07;16.00;68.40
3198;DHT22;1611;49.394;11.136;2022-10-30T09:07:34;16.20;67.80
3198;DHT22;1611;49.394;11.136;2022-10-30T09:10:01;16.40;67.50
3198;DHT22;1611;49.394;11.136;2022-10-30T09:12:28;16.70;65.00
3198;DHT22;1611;49.394;11.136;2022-10-30T09:14:56;16.90;64.20
3198;DHT22;1611;49.394;11.136;2022-10-30T09:17:23;17.30;62.90
3198;DHT22;1611;49.394;11.136;2022-10-30T09:19:50;17.60;61.00
3198;DHT22;1611;49.394;11.136;2022-10-30T09:22:17;17.90;59.40
3198;DHT22;1611;49.394;11.136;2022-10-30T09:24:43;18.40;58.00
3198;DHT22;1611;49.394;11.136;2022-10-30T09:27:10;18.90;55.30
3198;DHT22;1611;49.394;11.136;2022-10-30T09:29:37;19.20;53.20
3198;DHT22;1611;49.394;11.136;2022-10-30T09:32:05;19.50;52.70
3198;DHT22;1611;49.394;11.136;2022-10-30T09:34:34;20.00;49.70
3198;DHT22;1611;49.394;11.136;2022-10-30T09:37:02;20.70;47.50
3198;DHT22;1611;49.394;11.136;2022-10-30T09:39:29;21.40;46.00
3198;DHT22;1611;49.394;11.136;2022-10-30T09:42:07;22.00;43.30
3198;DHT22;1611;49.394;11.136;2022-10-30T09:44:43;22.70;39.20
3198;DHT22;1611;49.394;11.136;2022-10-30T09:47:23;23.60;36.10
3198;DHT22;1611;49.394;11.136;2022-10-30T09:50:02;24.10;34.90
3198;DHT22;1611;49.394;11.136;2022-10-30T09:52:37;24.00;33.40
3198;DHT22;1611;49.394;11.136;2022-10-30T09:55:19;23.60;35.30
3198;DHT22;1611;49.394;11.136;2022-10-30T09:57:52;23.30;34.70
3198;DHT22;1611;49.394;11.136;2022-10-30T10:00:22;22.90;37.10
3198;DHT22;1611;49.394;11.136;2022-10-30T10:05:45;22.20;38.60
3198;DHT22;1611;49.394;11.136;2022-10-30T10:08:16;21.80;40.60
3198;DHT22;1611;49.394;11.136;2022-10-30T10:10:46;21.50;41.80
3198;DHT22;1611;49.394;11.136;2022-10-30T10:13:24;21.30;41.90
3198;DHT22;1611;49.394;11.136;2022-10-30T10:15:56;21.10;43.60
3198;DHT22;1611;49.394;11.136;2022-10-30T10:18:30;20.90;45.20
3198;DHT22;1611;49.394;11.136;2022-10-30T10:21:06;21.00;43.40
3198;DHT22;1611;49.394;11.136;2022-10-30T10:23:42;21.10;45.20
3198;DHT22;1611;49.394;11.136;2022-10-30T10:32:09;20.90;46.80
3198;DHT22;1611;49.394;11.136;2022-10-30T10:34:55;20.90;47.20
3198;DHT22;1611;49.394;11.136;2022-10-30T10:37:32;20.90;46.00
3198;DHT22;1611;49.394;11.136;2022-10-30T10:40:17;21.00;45.20
3198;DHT22;1611;49.394;11.136;2022-10-30T10:42:55;21.00;45.10
3198;DHT22;1611;49.394;11.136;2022-10-30T10:45:30;21.10;45.90
3198;DHT22;1611;49.394;11.136;2022-10-30T10:48:29;21.30;45.60
3198;DHT22;1611;49.394;11.136;2022-10-30T10:51:03;21.30;46.50
3198;DHT22;1611;49.394;11.136;2022-10-30T10:53:39;21.20;46.30
3198;DHT22;1611;49.394;11.136;2022-10-30T10:56:08;21.20;43.00
3198;DHT22;1611;49.394;11.136;2022-10-30T10:58:40;21.30;43.10
3198;DHT22;1611;49.394;11.136;2022-10-30T11:01:14;21.30;44.10
3198;DHT22;1611;49.394;11.136;2022-10-30T11:03:48;21.40;45.50
3198;DHT22;1611;49.394;11.136;2022-10-30T11:06:23;21.40;46.20
3198;DHT22;1611;49.394;11.136;2022-10-30T11:08:52;21.50;46.70
3198;DHT22;1611;49.394;11.136;2022-10-30T11:11:22;21.40;46.20
3198;DHT22;1611;49.394;11.136;2022-10-30T11:13:49;21.30;46.80
3198;DHT22;1611;49.394;11.136;2022-10-30T11:16:24;21.40;43.80
3198;DHT22;1611;49.394;11.136;2022-10-30T11:18:56;21.60;45.50
3198;DHT22;1611;49.394;11.136;2022-10-30T11:21:26;21.90;43.30
3198;DHT22;1611;49.394;11.136;2022-10-30T11:23:54;22.20;43.70
3198;DHT22;1611;49.394;11.136;2022-10-30T11:26:30;22.90;39.20
3198;DHT22;1611;49.394;11.136;2022-10-30T11:29:05;23.60;37.40
3198;DHT22;1611;49.394;11.136;2022-10-30T11:31:38;23.80;36.70
3198;DHT22;1611;49.394;11.136;2022-10-30T11:34:33;23.60;37.60
3198;DHT22;1611;49.394;11.136;2022-10-30T11:37:02;23.40;38.00
3198;DHT22;1611;49.394;11.136;2022-10-30T11:39:31;23.20;38.30
3198;DHT22;1611;49.394;11.136;2022-10-30T11:42:04;23.20;38.40
3198;DHT22;1611;49.394;11.136;2022-10-30T11:44:35;23.20;39.40
3198;DHT22;1611;49.394;11.136;2022-10-30T11:47:03;23.30;39.60
3198;DHT22;1611;49.394;11.136;2022-10-30T11:49:36;23.40;38.50
3198;DHT22;1611;49.394;11.136;2022-10-30T11:52:06;23.50;38.60
3198;DHT22;1611;49.394;11.136;2022-10-30T11:54:36;23.50;38.80
3198;DHT22;1611;49.394;11.136;2022-10-30T11:57:20;23.50;38.50
3198;DHT22;1611;49.394;11.136;2022-10-30T11:59:49;23.50;38.90
3198;DHT22;1611;49.394;11.136;2022-10-30T12:02:20;23.50;37.50
3198;DHT22;1611;49.394;11.136;2022-10-30T12:04:48;23.70;38.20
3198;DHT22;1611;49.394;11.136;2022-10-30T12:07:23;23.80;38.60
3198;DHT22;1611;49.394;11.136;2022-10-30T12:09:51;23.90;35.40
3198;DHT22;1611;49.394;11.136;2022-10-30T12:12:22;24.10;35.70
3198;DHT22;1611;49.394;11.136;2022-10-30T12:14:50;24.10;35.40
3198;DHT22;1611;49.394;11.136;2022-10-30T12:17:18;24.20;35.70
3198;DHT22;1611;49.394;11.136;2022-10-30T12:19:48;24.40;36.20
3198;DHT22;1611;49.394;11.136;2022-10-30T12:22:28;24.80;35.00
3198;DHT22;1611;49.394;11.136;2022-10-30T12:24:57;24.90;33.20
3198;DHT22;1611;49.394;11.136;2022-10-30T12:27:24;24.80;34.10
3198;DHT22;1611;49.394;11.136;2022-10-30T12:30:03;24.70;35.00
3198;DHT22;1611;49.394;11.136;2022-10-30T12:32:36;24.60;35.90
3198;DHT22;1611;49.394;11.136;2022-10-30T12:35:13;24.50;34.50
3198;DHT22;1611;49.394;11.136;2022-10-30T12:37:43;24.50;35.80
3198;DHT22;1611;49.394;11.136;2022-10-30T12:40:15;24.50;36.70
3198;DHT22;1611;49.394;11.136;2022-10-30T12:42:47;24.40;37.80
3198;DHT22;1611;49.394;11.136;2022-10-30T12:45:20;24.70;37.50
3198;DHT22;1611;49.394;11.136;2022-10-30T12:47:51;25.20;36.00
3198;DHT22;1611;49.394;11.136;2022-10-30T12:50:24;25.40;33.50
3198;DHT22;1611;49.394;11.136;2022-10-30T12:52:58;25.50;30.70
3198;DHT22;1611;49.394;11.136;2022-10-30T12:55:30;25.50;32.60
3198;DHT22;1611;49.394;11.136;2022-10-30T12:58:04;25.40;34.10
3198;DHT22;1611;49.394;11.136;2022-10-30T13:00:39;25.10;34.60
3198;DHT22;1611;49.394;11.136;2022-10-30T13:03:20;24.90;35.20
3198;DHT22;1611;49.394;11.136;2022-10-30T13:05:50;24.80;35.80
3198;DHT22;1611;49.394;11.136;2022-10-30T13:08:24;24.70;36.50
3198;DHT22;1611;49.394;11.136;2022-10-30T13:10:58;24.40;36.40
3198;DHT22;1611;49.394;11.136;2022-10-30T13:13:31;24.10;37.10
3198;DHT22;1611;49.394;11.136;2022-10-30T13:16:02;23.80;38.00
3198;DHT22;1611;49.394;11.136;2022-10-30T13:18:32;23.70;38.90
3198;DHT22;1611;49.394;11.136;2022-10-30T13:21:19;23.40;39.10
3198;DHT22;1611;49.394;11.136;2022-10-30T13:23:51;23.20;39.50
3198;DHT22;1611;49.394;11.136;2022-10-30T13:26:25;23.10;40.00
3198;DHT22;1611;49.394;11.136;2022-10-30T13:29:03;22.90;40.70
3198;DHT22;1611;49.394;11.136;2022-10-30T13:31:37;22.80;41.10
3198;DHT22;1611;49.394;11.136;2022-10-30T13:34:15;22.70;42.10
3198;DHT22;1611;49.394;11.136;2022-10-30T13:36:51;22.60;42.30
3198;DHT22;1611;49.394;11.136;2022-10-30T13:39:27;22.50;42.50
3198;DHT22;1611;49.394;11.136;2022-10-30T13:42:06;22.50;42.70
3198;DHT22;1611;49.394;11.136;2022-10-30T13:44:45;22.50;43.30
3198;DHT22;1611;49.394;11.136;2022-10-30T13:47:23;22.40;44.10
3198;DHT22;1611;49.394;11.136;2022-10-30T13:52:47;22.30;44.00
3198;DHT22;1611;49.394;11.136;2022-10-30T13:55:22;22.20;44.20
3198;DHT22;1611;49.394;11.136;2022-10-30T13:57:55;22.30;44.30
3198;DHT22;1611;49.394;11.136;2022-10-30T14:00:28;22.40;44.40
3198;DHT22;1611;49.394;11.136;2022-10-30T14:03:11;22.20;44.80
3198;DHT22;1611;49.394;11.136;2022-10-30T14:05:44;22.20;45.10
3198;DHT22;1611;49.394;11.136;2022-10-30T14:08:21;22.10;46.00
3198;DHT22;1611;49.394;11.136;2022-10-30T14:10:52;21.90;45.80
3198;DHT22;1611;49.394;11.136;2022-10-30T14:13:23;21.90;46.00
3198;DHT22;1611;49.394;11.136;2022-10-30T14:15:55;21.90;46.20
3198;DHT22;1611;49.394;11.136;2022-10-30T14:18:25;21.90;46.10
3198;DHT22;1611;49.394;11.136;2022-10-30T14:20:53;21.70;46.60
3198;DHT22;1611;49.394;11.136;2022-10-30T14:23:22;21.60;47.00
3198;DHT22;1611;49.394;11.136;2022-10-30T14:26:23;21.40;47.50
3198;DHT22;1611;49.394;11.136;2022-10-30T14:28:54;21.30;48.60
3198;DHT22;1611;49.394;11.136;2022-10-30T14:31:33;21.10;49.40
3198;DHT22;1611;49.394;11.136;2022-10-30T14:34:00;21.00;50.10
3198;DHT22;1611;49.394;11.136;2022-10-30T14:36:47;20.90;50.90
3198;DHT22;1611;49.394;11.136;2022-10-30T14:39:27;20.70;52.20
3198;DHT22;1611;49.394;11.136;2022-10-30T14:42:02;20.60;53.10
3198;DHT22;1611;49.394;11.136;2022-10-30T14:44:48;20.50;53.70
3198;DHT22;1611;49.394;11.136;2022-10-30T14:47:44;20.40;55.50
3198;DHT22;1611;49.394;11.136;2022-10-30T14:50:34;20.30;55.40
3198;DHT22;1611;49.394;11.136;2022-10-30T14:53:30;20.20;56.40
3198;DHT22;1611;49.394;11.136;2022-10-30T14:56:06;20.10;57.60
3198;DHT22;1611;49.394;11.136;2022-10-30T14:58:36;20.00;58.50
3198;DHT22;1611;49.394;11.136;2022-10-30T15:01:23;19.90;59.00
3198;DHT22;1611;49.394;11.136;2022-10-30T15:06:59;19.90;59.70
3198;DHT22;1611;49.394;11.136;2022-10-30T15:09:50;19.80;59.80
3198;DHT22;1611;49.394;11.136;2022-10-30T15:12:30;19.70;59.90
3198;DHT22;1611;49.394;11.136;2022-10-30T15:15:02;19.60;60.10
3198;DHT22;1611;49.394;11.136;2022-10-30T15:17:32;19.50;60.50
3198;DHT22;1611;49.394;11.136;2022-10-30T15:20:01;19.40;60.90
3198;DHT22;1611;49.394;11.136;2022-10-30T15:22:31;19.30;61.40
3198;DHT22;1611;49.394;11.136;2022-10-30T15:25:00;19.20;61.60
3198;DHT22;1611;49.394;11.136;2022-10-30T15:27:28;19.10;62.10
3198;DHT22;1611;49.394;11.136;2022-10-30T15:30:00;19.10;62.50
3198;DHT22;1611;49.394;11.136;2022-10-30T15:32:28;19.00;62.70
3198;DHT22;1611;49.394;11.136;2022-10-30T15:34:56;18.90;63.20
3198;DHT22;1611;49.394;11.136;2022-10-30T15:37:25;18.80;64.00
3198;DHT22;1611;49.394;11.136;2022-10-30T15:40:11;18.70;64.50
3198;DHT22;1611;49.394;11.136;2022-10-30T15:42:41;18.70;65.00
3198;DHT22;1611;49.394;11.136;2022-10-30T15:45:16;18.60;65.50
3198;DHT22;1611;49.394;11.136;2022-10-30T15:47:45;18.50;65.70
3198;DHT22;1611;49.394;11.136;2022-10-30T15:50:14;18.40;66.40
3198;DHT22;1611;49.394;11.136;2022-10-30T15:52:42;18.30;67.30
3198;DHT22;1611;49.394;11.136;2022-10-30T15:55:13;18.20;67.90
3198;DHT22;1611;49.394;11.136;2022-10-30T15:57:44;18.10;68.70
3198;DHT22;1611;49.394;11.136;2022-10-30T16:00:21;18.10;69.00
3198;DHT22;1611;49.394;11.136;2022-10-30T16:02:58;18.00;69.00
3198;DHT22;1611;49.394;11.136;2022-10-30T16:05:25;18.00;69.50
3198;DHT22;1611;49.394;11.136;2022-10-30T16:07:55;17.90;70.00
3198;DHT22;1611;49.394;11.136;2022-10-30T16:10:23;17.80;70.20
3198;DHT22;1611;49.394;11.136;2022-10-30T16:12:51;17.70;70.70
3198;DHT22;1611;49.394;11.136;2022-10-30T16:15:26;17.70;70.90
3198;DHT22;1611;49.394;11.136;2022-10-30T16:18:05;17.60;71.40
3198;DHT22;1611;49.394;11.136;2022-10-30T16:20:33;17.50;71.50
3198;DHT22;1611;49.394;11.136;2022-10-30T16:23:00;17.50;71.40